sensor_id;sensor_type;location;lat;lon;timestamp;P1;durP1;ratioP1;P2;durP2;ratioP2
59673;SDS011;45544;53.358;-1.488;2022-08-18T00:00:30;2.78;;;2.55;;
59673;SDS011;45544;53.358;-1.488;2022-08-18T00:02:58;3.83;;;1.95;;
59673;SDS011;45544;53.358;-1.488;2022-08-18T00:05:25;3.75;;;2.25;;
59673;SDS011;45544;53.358;-1.488;2022-08-18T00:07:51;3.55;;;2.53;;
59673;SDS011;45544;53.358;-1.488;2022-08-18T00:10:17;2.55;;;1.88;;
59673;SDS011;45544;53.358;-1.488;2022-08-18T00:12:43;2.17;;;1.60;;
59673;SDS011;45544;53.358;-1.488;2022-08-18T00:15:10;3.50;;;2.08;;
59673;SDS011;45544;53.358;-1.488;2022-08-18T00:17:37;1.80;;;1.55;;
59673;SDS011;45544;53.358;-1.488;2022-08-18T00:20:04;3.35;;;1.65;;
59673;SDS011;45544;53.358;-1.488;2022-08-18T00:22:30;1.65;;;1.55;;
59673;SDS011;45544;53.358;-1.488;2022-08-18T00:24:56;2.58;;;1.98;;
59673;SDS011;45544;53.358;-1.488;2022-08-18T00:27:27;1.80;;;1.65;;
59673;SDS011;45544;53.358;-1.488;2022-08-18T00:29:54;3.30;;;1.70;;
59673;SDS011;45544;53.358;-1.488;2022-08-18T00:32:24;2.55;;;1.58;;
59673;SDS011;45544;53.358;-1.488;2022-08-18T00:34:51;2.67;;;1.30;;
59673;SDS011;45544;53.358;-1.488;2022-08-18T00:37:17;2.08;;;1.67;;
59673;SDS011;45544;53.358;-1.488;2022-08-18T00:39:43;1.88;;;1.60;;
59673;SDS011;45544;53.358;-1.488;2022-08-18T00:42:16;2.60;;;1.50;;
59673;SDS011;45544;53.358;-1.488;2022-08-18T00:44:42;1.65;;;1.48;;
59673;SDS011;45544;53.358;-1.488;2022-08-18T00:47:09;2.50;;;1.95;;
59673;SDS011;45544;53.358;-1.488;2022-08-18T00:49:36;1.83;;;1.50;;
59673;SDS011;45544;53.358;-1.488;2022-08-18T00:52:02;2.15;;;1.85;;
59673;SDS011;45544;53.358;-1.488;2022-08-18T00:54:30;3.20;;;1.52;;
59673;SDS011;45544;53.358;-1.488;2022-08-18T00:56:59;1.70;;;1.60;;
59673;SDS011;45544;53.358;-1.488;2022-08-18T01:02:07;1.88;;;1.42;;
59673;SDS011;45544;53.358;-1.488;2022-08-18T01:04:39;2.40;;;1.52;;
59673;SDS011;45544;53.358;-1.488;2022-08-18T01:07:09;2.22;;;1.02;;
59673;SDS011;45544;53.358;-1.488;2022-08-18T01:09:36;1.40;;;1.27;;
59673;SDS011;45544;53.358;-1.488;2022-08-18T01:12:02;2.70;;;1.30;;
59673;SDS011;45544;53.358;-1.488;2022-08-18T01:14:28;1.42;;;1.20;;
59673;SDS011;45544;53.358;-1.488;2022-08-18T01:16:54;1.80;;;1.20;;
59673;SDS011;45544;53.358;-1.488;2022-08-18T01:19:39;2.67;;;1.38;;
59673;SDS011;45544;53.358;-1.488;2022-08-18T01:22:37;1.73;;;1.02;;
59673;SDS011;45544;53.358;-1.488;2022-08-18T01:25:07;3.50;;;1.40;;
59673;SDS011;45544;53.358;-1.488;2022-08-18T01:27:53;1.35;;;0.88;;
59673;SDS011;45544;53.358;-1.488;2022-08-18T01:30:21;2.13;;;1.30;;
59673;SDS011;45544;53.358;-1.488;2022-08-18T01:32:50;2.05;;;1.20;;
59673;SDS011;45544;53.358;-1.488;2022-08-18T01:35:16;4.47;;;1.40;;
59673;SDS011;45544;53.358;-1.488;2022-08-18T01:37:42;3.17;;;1.95;;
59673;SDS011;45544;53.358;-1.488;2022-08-18T01:40:09;4.40;;;1.50;;
59673;SDS011;45544;53.358;-1.488;2022-08-18T01:42:36;1.48;;;1.30;;
59673;SDS011;45544;53.358;-1.488;2022-08-18T01:45:03;1.42;;;1.20;;
59673;SDS011;45544;53.358;-1.488;2022-08-18T01:47:30;1.40;;;1.30;;
59673;SDS011;45544;53.358;-1.488;2022-08-18T01:49:56;2.38;;;1.33;;
59673;SDS011;45544;53.358;-1.488;2022-08-18T01:52:24;2.15;;;1.33;;
59673;SDS011;45544;53.358;-1.488;2022-08-18T01:54:53;1.80;;;1.38;;
59673;SDS011;45544;53.358;-1.488;2022-08-18T01:57:20;1.88;;;1.40;;
59673;SDS011;45544;53.358;-1.488;2022-08-18T01:59:46;1.83;;;1.38;;
59673;SDS011;45544;53.358;-1.488;2022-08-18T02:02:15;1.40;;;1.10;;
59673;SDS011;45544;53.358;-1.488;2022-08-18T02:04:43;1.20;;;1.10;;
59673;SDS011;45544;53.358;-1.488;2022-08-18T02:07:10;1.42;;;1.10;;
59673;SDS011;45544;53.358;-1.488;2022-08-18T02:09:37;1.55;;;1.25;;
59673;SDS011;45544;53.358;-1.488;2022-08-18T02:12:03;2.63;;;1.52;;
59673;SDS011;45544;53.358;-1.488;2022-08-18T02:14:31;2.47;;;1.90;;
59673;SDS011;45544;53.358;-1.488;2022-08-18T02:16:57;2.70;;;1.50;;
59673;SDS011;45544;53.358;-1.488;2022-08-18T02:19:23;2.22;;;1.70;;
59673;SDS011;45544;53.358;-1.488;2022-08-18T02:21:50;2.28;;;1.42;;
59673;SDS011;45544;53.358;-1.488;2022-08-18T02:24:17;3.42;;;2.30;;
59673;SDS011;45544;53.358;-1.488;2022-08-18T02:26:43;2.28;;;2.00;;
59673;SDS011;45544;53.358;-1.488;2022-08-18T02:29:09;1.67;;;1.40;;
59673;SDS011;45544;53.358;-1.488;2022-08-18T02:31:36;2.97;;;1.45;;
59673;SDS011;45544;53.358;-1.488;2022-08-18T02:34:02;1.55;;;1.45;;
59673;SDS011;45544;53.358;-1.488;2022-08-18T02:36:28;6.28;;;1.48;;
59673;SDS011;45544;53.358;-1.488;2022-08-18T02:38:54;1.75;;;1.63;;
59673;SDS011;45544;53.358;-1.488;2022-08-18T02:41:20;2.47;;;1.65;;
59673;SDS011;45544;53.358;-1.488;2022-08-18T02:43:46;3.35;;;1.55;;
59673;SDS011;45544;53.358;-1.488;2022-08-18T02:46:13;3.05;;;1.25;;
59673;SDS011;45544;53.358;-1.488;2022-08-18T02:48:39;4.18;;;1.63;;
59673;SDS011;45544;53.358;-1.488;2022-08-18T02:53:31;1.40;;;1.30;;
59673;SDS011;45544;53.358;-1.488;2022-08-18T02:56:04;3.20;;;1.45;;
59673;SDS011;45544;53.358;-1.488;2022-08-18T02:58:50;2.00;;;1.27;;
59673;SDS011;45544;53.358;-1.488;2022-08-18T03:01:21;5.05;;;1.48;;
59673;SDS011;45544;53.358;-1.488;2022-08-18T03:03:48;1.92;;;1.33;;
59673;SDS011;45544;53.358;-1.488;2022-08-18T03:06:16;3.67;;;2.05;;
59673;SDS011;45544;53.358;-1.488;2022-08-18T03:08:42;2.97;;;1.38;;
59673;SDS011;45544;53.358;-1.488;2022-08-18T03:11:13;4.72;;;1.52;;
59673;SDS011;45544;53.358;-1.488;2022-08-18T03:13:39;0.98;;;0.82;;
59673;SDS011;45544;53.358;-1.488;2022-08-18T03:16:05;2.35;;;1.30;;
59673;SDS011;45544;53.358;-1.488;2022-08-18T03:18:31;1.52;;;1.20;;
59673;SDS011;45544;53.358;-1.488;2022-08-18T03:21:03;1.20;;;1.08;;
59673;SDS011;45544;53.358;-1.488;2022-08-18T03:23:29;1.60;;;1.45;;
59673;SDS011;45544;53.358;-1.488;2022-08-18T03:25:55;3.00;;;1.92;;
59673;SDS011;45544;53.358;-1.488;2022-08-18T03:28:21;1.90;;;1.58;;
59673;SDS011;45544;53.358;-1.488;2022-08-18T03:30:47;1.67;;;1.10;;
59673;SDS011;45544;53.358;-1.488;2022-08-18T03:33:14;1.10;;;0.95;;
59673;SDS011;45544;53.358;-1.488;2022-08-18T03:35:40;1.83;;;1.05;;
59673;SDS011;45544;53.358;-1.488;2022-08-18T03:38:06;0.77;;;0.73;;
59673;SDS011;45544;53.358;-1.488;2022-08-18T03:40:33;0.93;;;0.80;;
59673;SDS011;45544;53.358;-1.488;2022-08-18T03:43:01;1.35;;;1.05;;
59673;SDS011;45544;53.358;-1.488;2022-08-18T03:45:30;2.40;;;0.98;;
59673;SDS011;45544;53.358;-1.488;2022-08-18T03:47:56;2.13;;;0.90;;
59673;SDS011;45544;53.358;-1.488;2022-08-18T03:50:24;1.17;;;0.88;;
59673;SDS011;45544;53.358;-1.488;2022-08-18T03:52:50;1.85;;;0.88;;
59673;SDS011;45544;53.358;-1.488;2022-08-18T03:55:17;1.08;;;0.98;;
59673;SDS011;45544;53.358;-1.488;2022-08-18T03:57:43;2.97;;;1.15;;
59673;SDS011;45544;53.358;-1.488;2022-08-18T04:00:10;1.83;;;1.08;;
59673;SDS011;45544;53.358;-1.488;2022-08-18T04:02:36;0.80;;;0.77;;
59673;SDS011;45544;53.358;-1.488;2022-08-18T04:05:02;1.02;;;0.82;;
59673;SDS011;45544;53.358;-1.488;2022-08-18T04:07:28;1.08;;;0.88;;
59673;SDS011;45544;53.358;-1.488;2022-08-18T04:09:54;2.25;;;1.05;;
59673;SDS011;45544;53.358;-1.488;2022-08-18T04:12:20;1.00;;;0.98;;
59673;SDS011;45544;53.358;-1.488;2022-08-18T04:14:47;2.15;;;1.13;;
59673;SDS011;45544;53.358;-1.488;2022-08-18T04:17:14;2.10;;;1.25;;
59673;SDS011;45544;53.358;-1.488;2022-08-18T04:19:40;1.38;;;0.95;;
59673;SDS011;45544;53.358;-1.488;2022-08-18T04:22:06;2.67;;;1.00;;
59673;SDS011;45544;53.358;-1.488;2022-08-18T04:24:32;1.08;;;0.98;;
59673;SDS011;45544;53.358;-1.488;2022-08-18T04:27:00;1.60;;;1.10;;
59673;SDS011;45544;53.358;-1.488;2022-08-18T04:29:26;1.55;;;1.17;;
59673;SDS011;45544;53.358;-1.488;2022-08-18T04:31:52;1.73;;;1.00;;
59673;SDS011;45544;53.358;-1.488;2022-08-18T04:34:19;2.78;;;0.82;;
59673;SDS011;45544;53.358;-1.488;2022-08-18T04:36:46;1.63;;;0.80;;
59673;SDS011;45544;53.358;-1.488;2022-08-18T04:39:12;1.67;;;0.98;;
59673;SDS011;45544;53.358;-1.488;2022-08-18T04:41:39;1.98;;;1.08;;
59673;SDS011;45544;53.358;-1.488;2022-08-18T04:44:07;1.50;;;0.80;;
59673;SDS011;45544;53.358;-1.488;2022-08-18T04:46:35;1.33;;;1.00;;
59673;SDS011;45544;53.358;-1.488;2022-08-18T04:49:03;2.42;;;1.08;;
59673;SDS011;45544;53.358;-1.488;2022-08-18T04:51:29;1.63;;;1.23;;
59673;SDS011;45544;53.358;-1.488;2022-08-18T04:53:56;0.60;;;0.60;;
59673;SDS011;45544;53.358;-1.488;2022-08-18T04:56:31;3.38;;;1.17;;
59673;SDS011;45544;53.358;-1.488;2022-08-18T04:59:08;2.30;;;0.70;;
59673;SDS011;45544;53.358;-1.488;2022-08-18T05:01:41;1.48;;;1.10;;
59673;SDS011;45544;53.358;-1.488;2022-08-18T05:04:09;0.70;;;0.70;;
59673;SDS011;45544;53.358;-1.488;2022-08-18T05:06:37;1.70;;;0.95;;
59673;SDS011;45544;53.358;-1.488;2022-08-18T05:09:04;2.03;;;0.95;;
59673;SDS011;45544;53.358;-1.488;2022-08-18T05:11:31;4.68;;;1.85;;
59673;SDS011;45544;53.358;-1.488;2022-08-18T05:13:57;1.92;;;1.02;;
59673;SDS011;45544;53.358;-1.488;2022-08-18T05:16:24;1.52;;;0.95;;
59673;SDS011;45544;53.358;-1.488;2022-08-18T05:18:50;1.58;;;0.70;;
59673;SDS011;45544;53.358;-1.488;2022-08-18T05:21:17;3.55;;;1.15;;
59673;SDS011;45544;53.358;-1.488;2022-08-18T05:23:45;2.10;;;0.75;;
59673;SDS011;45544;53.358;-1.488;2022-08-18T05:26:12;5.45;;;2.15;;
59673;SDS011;45544;53.358;-1.488;2022-08-18T05:28:43;1.30;;;0.98;;
59673;SDS011;45544;53.358;-1.488;2022-08-18T05:31:10;0.95;;;0.85;;
59673;SDS011;45544;53.358;-1.488;2022-08-18T05:33:37;1.17;;;0.95;;
59673;SDS011;45544;53.358;-1.488;2022-08-18T05:36:56;1.50;;;0.70;;
59673;SDS011;45544;53.358;-1.488;2022-08-18T05:41:24;0.80;;;0.80;;
59673;SDS011;45544;53.358;-1.488;2022-08-18T05:43:52;0.93;;;0.80;;
59673;SDS011;45544;53.358;-1.488;2022-08-18T05:46:20;1.05;;;0.80;;
59673;SDS011;45544;53.358;-1.488;2022-08-18T05:48:47;1.67;;;0.90;;
59673;SDS011;45544;53.358;-1.488;2022-08-18T05:51:15;1.90;;;0.98;;
59673;SDS011;45544;53.358;-1.488;2022-08-18T05:53:42;0.73;;;0.70;;
59673;SDS011;45544;53.358;-1.488;2022-08-18T05:56:28;1.88;;;0.95;;
59673;SDS011;45544;53.358;-1.488;2022-08-18T05:59:12;1.20;;;0.60;;
59673;SDS011;45544;53.358;-1.488;2022-08-18T06:01:41;2.42;;;1.15;;
59673;SDS011;45544;53.358;-1.488;2022-08-18T06:06:44;1.85;;;1.35;;
59673;SDS011;45544;53.358;-1.488;2022-08-18T06:09:15;1.38;;;0.95;;
59673;SDS011;45544;53.358;-1.488;2022-08-18T06:11:43;1.33;;;0.90;;
59673;SDS011;45544;53.358;-1.488;2022-08-18T06:14:11;4.82;;;0.95;;
59673;SDS011;45544;53.358;-1.488;2022-08-18T06:16:41;1.63;;;1.00;;
59673;SDS011;45544;53.358;-1.488;2022-08-18T06:19:17;1.20;;;1.10;;
59673;SDS011;45544;53.358;-1.488;2022-08-18T06:21:49;1.42;;;1.33;;
59673;SDS011;45544;53.358;-1.488;2022-08-18T06:37:09;1.45;;;0.82;;
59673;SDS011;45544;53.358;-1.488;2022-08-18T06:42:02;1.95;;;0.70;;
59673;SDS011;45544;53.358;-1.488;2022-08-18T06:44:48;1.45;;;0.80;;
59673;SDS011;45544;53.358;-1.488;2022-08-18T06:49:43;1.20;;;0.90;;
59673;SDS011;45544;53.358;-1.488;2022-08-18T06:54:48;0.77;;;0.57;;
59673;SDS011;45544;53.358;-1.488;2022-08-18T06:57:22;3.67;;;1.02;;
59673;SDS011;45544;53.358;-1.488;2022-08-18T06:59:53;0.50;;;0.50;;
59673;SDS011;45544;53.358;-1.488;2022-08-18T07:02:21;1.60;;;0.90;;
59673;SDS011;45544;53.358;-1.488;2022-08-18T07:04:57;0.73;;;0.73;;
59673;SDS011;45544;53.358;-1.488;2022-08-18T07:07:42;0.93;;;0.90;;
59673;SDS011;45544;53.358;-1.488;2022-08-18T07:12:41;2.50;;;0.67;;
59673;SDS011;45544;53.358;-1.488;2022-08-18T07:15:08;1.70;;;0.90;;
59673;SDS011;45544;53.358;-1.488;2022-08-18T07:17:37;1.85;;;0.98;;
59673;SDS011;45544;53.358;-1.488;2022-08-18T07:20:05;1.17;;;0.98;;
59673;SDS011;45544;53.358;-1.488;2022-08-18T07:22:50;5.40;;;0.90;;
59673;SDS011;45544;53.358;-1.488;2022-08-18T07:25:22;0.68;;;0.68;;
59673;SDS011;45544;53.358;-1.488;2022-08-18T07:27:48;1.45;;;0.50;;
59673;SDS011;45544;53.358;-1.488;2022-08-18T07:32:57;0.80;;;0.77;;
59673;SDS011;45544;53.358;-1.488;2022-08-18T07:35:27;1.75;;;0.80;;
59673;SDS011;45544;53.358;-1.488;2022-08-18T07:37:56;2.58;;;0.90;;
59673;SDS011;45544;53.358;-1.488;2022-08-18T07:40:36;0.63;;;0.63;;
59673;SDS011;45544;53.358;-1.488;2022-08-18T07:43:24;2.15;;;0.88;;
59673;SDS011;45544;53.358;-1.488;2022-08-18T07:45:53;1.08;;;0.90;;
59673;SDS011;45544;53.358;-1.488;2022-08-18T07:48:24;2.75;;;0.82;;
59673;SDS011;45544;53.358;-1.488;2022-08-18T07:51:00;0.98;;;0.80;;
59673;SDS011;45544;53.358;-1.488;2022-08-18T07:56:06;1.02;;;0.65;;
59673;SDS011;45544;53.358;-1.488;2022-08-18T07:58:45;1.13;;;0.80;;
59673;SDS011;45544;53.358;-1.488;2022-08-18T08:06:40;1.70;;;0.90;;
59673;SDS011;45544;53.358;-1.488;2022-08-18T08:11:58;2.58;;;1.30;;
59673;SDS011;45544;53.358;-1.488;2022-08-18T08:17:12;2.55;;;1.40;;
59673;SDS011;45544;53.358;-1.488;2022-08-18T08:22:20;1.33;;;1.08;;
59673;SDS011;45544;53.358;-1.488;2022-08-18T08:27:17;4.18;;;1.85;;
59673;SDS011;45544;53.358;-1.488;2022-08-18T08:32:24;0.85;;;0.80;;
59673;SDS011;45544;53.358;-1.488;2022-08-18T08:34:56;6.28;;;1.10;;
59673;SDS011;45544;53.358;-1.488;2022-08-18T08:37:29;1.92;;;1.33;;
59673;SDS011;45544;53.358;-1.488;2022-08-18T08:39:59;2.55;;;1.10;;
59673;SDS011;45544;53.358;-1.488;2022-08-18T08:45:00;2.00;;;1.45;;
59673;SDS011;45544;53.358;-1.488;2022-08-18T08:47:30;4.22;;;1.63;;
59673;SDS011;45544;53.358;-1.488;2022-08-18T08:49:58;1.77;;;1.08;;
59673;SDS011;45544;53.358;-1.488;2022-08-18T08:52:33;1.67;;;1.20;;
59673;SDS011;45544;53.358;-1.488;2022-08-18T08:55:06;2.22;;;1.15;;
59673;SDS011;45544;53.358;-1.488;2022-08-18T08:57:35;1.77;;;1.20;;
59673;SDS011;45544;53.358;-1.488;2022-08-18T09:00:05;1.85;;;1.65;;
59673;SDS011;45544;53.358;-1.488;2022-08-18T09:05:51;2.10;;;1.23;;
59673;SDS011;45544;53.358;-1.488;2022-08-18T09:11:05;2.88;;;1.33;;
59673;SDS011;45544;53.358;-1.488;2022-08-18T09:19:05;1.73;;;1.15;;
59673;SDS011;45544;53.358;-1.488;2022-08-18T09:29:45;3.72;;;1.50;;
59673;SDS011;45544;53.358;-1.488;2022-08-18T09:37:17;1.38;;;1.27;;
59673;SDS011;45544;53.358;-1.488;2022-08-18T09:42:55;0.95;;;0.95;;
59673;SDS011;45544;53.358;-1.488;2022-08-18T09:45:38;2.42;;;1.40;;
59673;SDS011;45544;53.358;-1.488;2022-08-18T09:50:32;1.30;;;1.17;;
59673;SDS011;45544;53.358;-1.488;2022-08-18T09:53:50;1.55;;;1.45;;
59673;SDS011;45544;53.358;-1.488;2022-08-18T09:55:51;1.95;;;1.58;;
59673;SDS011;45544;53.358;-1.488;2022-08-18T10:03:35;1.90;;;1.52;;
59673;SDS011;45544;53.358;-1.488;2022-08-18T10:06:05;1.30;;;1.20;;
59673;SDS011;45544;53.358;-1.488;2022-08-18T10:08:46;1.60;;;1.50;;
59673;SDS011;45544;53.358;-1.488;2022-08-18T10:11:17;1.85;;;1.48;;
59673;SDS011;45544;53.358;-1.488;2022-08-18T10:16:15;1.75;;;1.45;;
59673;SDS011;45544;53.358;-1.488;2022-08-18T10:18:47;1.80;;;1.33;;
59673;SDS011;45544;53.358;-1.488;2022-08-18T10:21:22;2.40;;;1.40;;
59673;SDS011;45544;53.358;-1.488;2022-08-18T10:31:22;3.75;;;2.08;;
59673;SDS011;45544;53.358;-1.488;2022-08-18T10:34:07;3.15;;;2.15;;
59673;SDS011;45544;53.358;-1.488;2022-08-18T10:36:44;1.50;;;1.40;;
59673;SDS011;45544;53.358;-1.488;2022-08-18T10:39:41;2.88;;;1.38;;
59673;SDS011;45544;53.358;-1.488;2022-08-18T10:42:05;2.22;;;1.55;;
59673;SDS011;45544;53.358;-1.488;2022-08-18T10:44:40;1.85;;;1.60;;
59673;SDS011;45544;53.358;-1.488;2022-08-18T10:47:07;1.67;;;1.30;;
59673;SDS011;45544;53.358;-1.488;2022-08-18T10:49:35;2.17;;;1.98;;
59673;SDS011;45544;53.358;-1.488;2022-08-18T10:54:56;1.33;;;1.23;;
59673;SDS011;45544;53.358;-1.488;2022-08-18T11:02:37;1.80;;;1.70;;
59673;SDS011;45544;53.358;-1.488;2022-08-18T11:05:06;1.90;;;1.80;;
59673;SDS011;45544;53.358;-1.488;2022-08-18T11:07:35;1.92;;;1.80;;
59673;SDS011;45544;53.358;-1.488;2022-08-18T11:10:13;2.58;;;1.85;;
59673;SDS011;45544;53.358;-1.488;2022-08-18T11:15:20;1.80;;;1.70;;
59673;SDS011;45544;53.358;-1.488;2022-08-18T11:17:53;2.00;;;1.60;;
59673;SDS011;45544;53.358;-1.488;2022-08-18T11:20:21;1.88;;;1.77;;
59673;SDS011;45544;53.358;-1.488;2022-08-18T11:22:52;2.35;;;1.90;;
59673;SDS011;45544;53.358;-1.488;2022-08-18T11:25:24;1.95;;;1.70;;
59673;SDS011;45544;53.358;-1.488;2022-08-18T11:27:50;2.25;;;1.85;;
59673;SDS011;45544;53.358;-1.488;2022-08-18T11:30:17;3.13;;;2.00;;
59673;SDS011;45544;53.358;-1.488;2022-08-18T11:32:43;2.00;;;1.83;;
59673;SDS011;45544;53.358;-1.488;2022-08-18T11:35:11;2.92;;;1.95;;
59673;SDS011;45544;53.358;-1.488;2022-08-18T11:40:05;1.42;;;1.33;;
59673;SDS011;45544;53.358;-1.488;2022-08-18T11:42:34;1.55;;;1.45;;
59673;SDS011;45544;53.358;-1.488;2022-08-18T11:47:29;1.65;;;1.55;;
59673;SDS011;45544;53.358;-1.488;2022-08-18T11:49:56;2.67;;;2.47;;
59673;SDS011;45544;53.358;-1.488;2022-08-18T11:52:24;2.40;;;2.20;;
59673;SDS011;45544;53.358;-1.488;2022-08-18T11:54:51;1.88;;;1.77;;
59673;SDS011;45544;53.358;-1.488;2022-08-18T11:57:40;2.97;;;1.95;;
59673;SDS011;45544;53.358;-1.488;2022-08-18T12:03:02;2.35;;;2.15;;
59673;SDS011;45544;53.358;-1.488;2022-08-18T12:05:28;3.50;;;2.65;;
59673;SDS011;45544;53.358;-1.488;2022-08-18T12:07:54;3.50;;;2.58;;
59673;SDS011;45544;53.358;-1.488;2022-08-18T12:12:47;3.88;;;2.15;;
59673;SDS011;45544;53.358;-1.488;2022-08-18T12:17:44;2.40;;;2.20;;
59673;SDS011;45544;53.358;-1.488;2022-08-18T12:20:11;1.73;;;1.63;;
59673;SDS011;45544;53.358;-1.488;2022-08-18T12:22:38;2.47;;;2.20;;
59673;SDS011;45544;53.358;-1.488;2022-08-18T12:25:06;1.83;;;1.73;;
59673;SDS011;45544;53.358;-1.488;2022-08-18T12:27:33;2.45;;;2.05;;
59673;SDS011;45544;53.358;-1.488;2022-08-18T12:29:59;1.92;;;1.80;;
59673;SDS011;45544;53.358;-1.488;2022-08-18T12:32:26;2.03;;;1.83;;
59673;SDS011;45544;53.358;-1.488;2022-08-18T12:34:54;2.53;;;2.30;;
59673;SDS011;45544;53.358;-1.488;2022-08-18T12:37:21;3.40;;;2.25;;
59673;SDS011;45544;53.358;-1.488;2022-08-18T12:39:48;2.83;;;1.95;;
59673;SDS011;45544;53.358;-1.488;2022-08-18T12:42:14;2.80;;;1.95;;
59673;SDS011;45544;53.358;-1.488;2022-08-18T12:44:41;2.33;;;1.90;;
59673;SDS011;45544;53.358;-1.488;2022-08-18T12:47:11;2.05;;;1.90;;
59673;SDS011;45544;53.358;-1.488;2022-08-18T12:49:37;2.38;;;2.17;;
59673;SDS011;45544;53.358;-1.488;2022-08-18T12:52:04;2.97;;;2.08;;
59673;SDS011;45544;53.358;-1.488;2022-08-18T12:54:30;2.22;;;1.90;;
59673;SDS011;45544;53.358;-1.488;2022-08-18T12:56:57;2.10;;;2.00;;
59673;SDS011;45544;53.358;-1.488;2022-08-18T12:59:24;2.60;;;2.35;;
59673;SDS011;45544;53.358;-1.488;2022-08-18T13:01:51;2.13;;;1.90;;
59673;SDS011;45544;53.358;-1.488;2022-08-18T13:04:17;2.42;;;2.00;;
59673;SDS011;45544;53.358;-1.488;2022-08-18T13:06:44;2.95;;;2.33;;
59673;SDS011;45544;53.358;-1.488;2022-08-18T13:09:11;2.10;;;1.90;;
59673;SDS011;45544;53.358;-1.488;2022-08-18T13:11:37;2.28;;;2.08;;
59673;SDS011;45544;53.358;-1.488;2022-08-18T13:14:03;1.80;;;1.67;;
59673;SDS011;45544;53.358;-1.488;2022-08-18T13:16:30;2.08;;;1.90;;
59673;SDS011;45544;53.358;-1.488;2022-08-18T13:18:56;2.13;;;1.90;;
59673;SDS011;45544;53.358;-1.488;2022-08-18T13:21:23;1.73;;;1.63;;
59673;SDS011;45544;53.358;-1.488;2022-08-18T13:23:49;1.63;;;1.52;;
59673;SDS011;45544;53.358;-1.488;2022-08-18T13:26:18;2.03;;;1.92;;
59673;SDS011;45544;53.358;-1.488;2022-08-18T13:28:46;2.15;;;1.88;;
59673;SDS011;45544;53.358;-1.488;2022-08-18T13:31:12;2.15;;;1.95;;
59673;SDS011;45544;53.358;-1.488;2022-08-18T13:33:40;1.80;;;1.70;;
59673;SDS011;45544;53.358;-1.488;2022-08-18T13:36:06;2.15;;;1.95;;
59673;SDS011;45544;53.358;-1.488;2022-08-18T13:38:32;4.30;;;2.00;;
59673;SDS011;45544;53.358;-1.488;2022-08-18T13:40:59;2.40;;;2.20;;
59673;SDS011;45544;53.358;-1.488;2022-08-18T13:43:33;1.90;;;1.80;;
59673;SDS011;45544;53.358;-1.488;2022-08-18T13:46:00;2.10;;;1.90;;
59673;SDS011;45544;53.358;-1.488;2022-08-18T13:48:26;2.20;;;2.00;;
59673;SDS011;45544;53.358;-1.488;2022-08-18T13:50:54;2.15;;;2.05;;
59673;SDS011;45544;53.358;-1.488;2022-08-18T13:53:22;2.00;;;1.90;;
59673;SDS011;45544;53.358;-1.488;2022-08-18T13:55:49;3.25;;;2.00;;
59673;SDS011;45544;53.358;-1.488;2022-08-18T13:58:16;2.33;;;2.17;;
59673;SDS011;45544;53.358;-1.488;2022-08-18T14:00:43;2.60;;;2.40;;
59673;SDS011;45544;53.358;-1.488;2022-08-18T14:03:09;2.40;;;2.20;;
59673;SDS011;45544;53.358;-1.488;2022-08-18T14:05:36;2.33;;;2.13;;
59673;SDS011;45544;53.358;-1.488;2022-08-18T14:08:03;3.17;;;2.55;;
59673;SDS011;45544;53.358;-1.488;2022-08-18T14:10:29;3.10;;;2.63;;
59673;SDS011;45544;53.358;-1.488;2022-08-18T14:12:56;3.03;;;2.80;;
59673;SDS011;45544;53.358;-1.488;2022-08-18T14:15:22;2.75;;;2.45;;
59673;SDS011;45544;53.358;-1.488;2022-08-18T14:17:48;3.25;;;2.60;;
59673;SDS011;45544;53.358;-1.488;2022-08-18T14:20:15;3.00;;;2.80;;
59673;SDS011;45544;53.358;-1.488;2022-08-18T14:23:00;3.33;;;2.97;;
59673;SDS011;45544;53.358;-1.488;2022-08-18T14:25:45;3.50;;;3.20;;
59673;SDS011;45544;53.358;-1.488;2022-08-18T14:28:30;3.05;;;2.75;;
59673;SDS011;45544;53.358;-1.488;2022-08-18T14:30:57;3.35;;;3.05;;
59673;SDS011;45544;53.358;-1.488;2022-08-18T14:33:24;3.28;;;2.97;;
59673;SDS011;45544;53.358;-1.488;2022-08-18T14:35:51;2.63;;;2.42;;
59673;SDS011;45544;53.358;-1.488;2022-08-18T14:38:17;3.40;;;3.10;;
59673;SDS011;45544;53.358;-1.488;2022-08-18T14:40:43;3.47;;;3.17;;
59673;SDS011;45544;53.358;-1.488;2022-08-18T14:43:10;3.00;;;2.70;;
59673;SDS011;45544;53.358;-1.488;2022-08-18T14:45:37;3.45;;;3.17;;
59673;SDS011;45544;53.358;-1.488;2022-08-18T14:48:04;3.25;;;2.95;;
59673;SDS011;45544;53.358;-1.488;2022-08-18T14:50:30;3.00;;;2.70;;
59673;SDS011;45544;53.358;-1.488;2022-08-18T14:52:56;2.63;;;2.42;;
59673;SDS011;45544;53.358;-1.488;2022-08-18T14:55:22;4.95;;;3.35;;
59673;SDS011;45544;53.358;-1.488;2022-08-18T14:57:48;3.40;;;3.10;;
59673;SDS011;45544;53.358;-1.488;2022-08-18T15:00:15;3.40;;;3.10;;
59673;SDS011;45544;53.358;-1.488;2022-08-18T15:02:42;3.45;;;2.30;;
59673;SDS011;45544;53.358;-1.488;2022-08-18T15:05:09;3.33;;;2.85;;
59673;SDS011;45544;53.358;-1.488;2022-08-18T15:07:36;3.53;;;3.22;;
59673;SDS011;45544;53.358;-1.488;2022-08-18T15:10:03;3.92;;;2.97;;
59673;SDS011;45544;53.358;-1.488;2022-08-18T15:12:29;3.22;;;2.90;;
59673;SDS011;45544;53.358;-1.488;2022-08-18T15:14:55;3.55;;;2.90;;
59673;SDS011;45544;53.358;-1.488;2022-08-18T15:17:23;3.40;;;3.03;;
59673;SDS011;45544;53.358;-1.488;2022-08-18T15:19:51;2.63;;;2.40;;
59673;SDS011;45544;53.358;-1.488;2022-08-18T15:22:17;3.92;;;3.13;;
59673;SDS011;45544;53.358;-1.488;2022-08-18T15:25:02;2.88;;;2.63;;
59673;SDS011;45544;53.358;-1.488;2022-08-18T15:27:47;3.17;;;2.75;;
59673;SDS011;45544;53.358;-1.488;2022-08-18T15:30:13;4.88;;;2.92;;
59673;SDS011;45544;53.358;-1.488;2022-08-18T15:32:40;3.15;;;2.47;;
59673;SDS011;45544;53.358;-1.488;2022-08-18T15:35:07;4.97;;;2.60;;
59673;SDS011;45544;53.358;-1.488;2022-08-18T15:37:34;4.65;;;2.30;;
59673;SDS011;45544;53.358;-1.488;2022-08-18T15:42:44;2.72;;;2.53;;
59673;SDS011;45544;53.358;-1.488;2022-08-18T15:45:12;3.17;;;2.75;;
59673;SDS011;45544;53.358;-1.488;2022-08-18T15:47:40;3.22;;;2.70;;
59673;SDS011;45544;53.358;-1.488;2022-08-18T15:50:07;4.95;;;2.60;;
59673;SDS011;45544;53.358;-1.488;2022-08-18T15:52:33;2.50;;;2.30;;
59673;SDS011;45544;53.358;-1.488;2022-08-18T15:54:59;2.50;;;2.30;;
59673;SDS011;45544;53.358;-1.488;2022-08-18T15:57:26;4.05;;;2.60;;
59673;SDS011;45544;53.358;-1.488;2022-08-18T15:59:52;2.60;;;2.40;;
59673;SDS011;45544;53.358;-1.488;2022-08-18T16:02:25;4.95;;;2.55;;
59673;SDS011;45544;53.358;-1.488;2022-08-18T16:04:52;2.83;;;2.60;;
59673;SDS011;45544;53.358;-1.488;2022-08-18T16:07:18;2.78;;;2.25;;
59673;SDS011;45544;53.358;-1.488;2022-08-18T16:09:46;2.45;;;2.25;;
59673;SDS011;45544;53.358;-1.488;2022-08-18T16:12:12;2.42;;;2.22;;
59673;SDS011;45544;53.358;-1.488;2022-08-18T16:14:38;5.38;;;3.33;;
59673;SDS011;45544;53.358;-1.488;2022-08-18T16:17:05;2.92;;;2.67;;
59673;SDS011;45544;53.358;-1.488;2022-08-18T16:19:31;2.65;;;2.45;;
59673;SDS011;45544;53.358;-1.488;2022-08-18T16:21:57;2.47;;;2.20;;
59673;SDS011;45544;53.358;-1.488;2022-08-18T16:24:23;2.28;;;2.08;;
59673;SDS011;45544;53.358;-1.488;2022-08-18T16:26:49;2.33;;;1.92;;
59673;SDS011;45544;53.358;-1.488;2022-08-18T16:29:16;3.40;;;3.08;;
59673;SDS011;45544;53.358;-1.488;2022-08-18T16:31:43;3.25;;;2.45;;
59673;SDS011;45544;53.358;-1.488;2022-08-18T16:34:09;2.13;;;2.03;;
59673;SDS011;45544;53.358;-1.488;2022-08-18T16:36:35;2.70;;;2.50;;
59673;SDS011;45544;53.358;-1.488;2022-08-18T16:39:01;2.70;;;2.45;;
59673;SDS011;45544;53.358;-1.488;2022-08-18T16:41:27;2.53;;;2.33;;
59673;SDS011;45544;53.358;-1.488;2022-08-18T16:43:54;2.83;;;2.63;;
59673;SDS011;45544;53.358;-1.488;2022-08-18T16:46:21;2.10;;;1.90;;
59673;SDS011;45544;53.358;-1.488;2022-08-18T16:48:49;2.65;;;2.45;;
59673;SDS011;45544;53.358;-1.488;2022-08-18T16:51:16;2.72;;;2.53;;
59673;SDS011;45544;53.358;-1.488;2022-08-18T16:53:43;2.22;;;2.03;;